createdAt,value
2023-02-27T00:02:17.935Z,12.00
2023-02-27T00:04:45.778Z,14.00
2023-02-27T00:07:14.918Z,12.10
2023-02-27T00:09:42.716Z,10.50
2023-02-27T00:12:11.998Z,11.18
2023-02-27T00:14:39.853Z,15.95
2023-02-27T00:17:07.981Z,12.57
2023-02-27T00:19:35.802Z,12.65
2023-02-27T00:22:03.593Z,12.88
2023-02-27T00:24:32.779Z,13.48
2023-02-27T00:27:00.634Z,10.43
2023-02-27T00:29:28.851Z,11.15
2023-02-27T00:31:56.855Z,12.95
2023-02-27T00:34:25.491Z,10.05
2023-02-27T00:36:54.102Z,11.55
2023-02-27T00:39:21.867Z,8.98
2023-02-27T00:41:51.031Z,12.98
2023-02-27T00:44:18.828Z,10.90
2023-02-27T00:46:47.109Z,10.57
2023-02-27T00:49:14.910Z,10.05
2023-02-27T00:51:42.982Z,9.90
2023-02-27T00:54:10.737Z,10.43
2023-02-27T00:56:38.527Z,6.85
2023-02-27T00:59:08.020Z,13.48
2023-02-27T01:01:36.100Z,7.72
2023-02-27T01:04:03.895Z,12.80
2023-02-27T01:06:31.670Z,12.20
2023-02-27T01:08:59.438Z,9.70
2023-02-27T01:11:27.611Z,12.10
2023-02-27T01:13:55.665Z,9.20
2023-02-27T01:16:25.440Z,9.95
2023-02-27T01:18:53.537Z,11.30
2023-02-27T01:21:21.833Z,10.05
2023-02-27T01:23:49.799Z,9.60
2023-02-27T01:26:20.255Z,12.80
2023-02-27T01:28:48.138Z,11.45
2023-02-27T01:31:16.224Z,13.13
2023-02-27T01:33:45.400Z,12.95
2023-02-27T01:36:13.189Z,13.38
2023-02-27T01:38:40.979Z,10.40
2023-02-27T01:41:08.895Z,10.75
2023-02-27T01:43:55.304Z,13.30
2023-02-27T01:46:23.416Z,13.40
2023-02-27T01:48:55.678Z,9.77
2023-02-27T01:51:23.653Z,10.07
2023-02-27T01:53:54.193Z,9.52
2023-02-27T01:56:24.788Z,10.15
2023-02-27T01:58:56.955Z,11.98
2023-02-27T02:01:26.712Z,11.52
2023-02-27T02:04:02.608Z,8.70
2023-02-27T02:06:37.114Z,10.98
2023-02-27T02:09:08.362Z,10.18
2023-02-27T02:11:36.487Z,10.52
2023-02-27T02:14:04.309Z,9.10
2023-02-27T02:16:55.065Z,10.20
2023-02-27T02:20:07.428Z,10.73
2023-02-27T02:23:09.710Z,9.90
2023-02-27T02:26:05.182Z,8.80
2023-02-27T02:29:14.337Z,10.05
2023-02-27T02:32:26.289Z,8.75
2023-02-27T02:35:15.963Z,8.18
2023-02-27T02:38:09.267Z,7.82
2023-02-27T02:40:44.806Z,9.30
2023-02-27T02:43:20.918Z,8.43
2023-02-27T02:45:59.801Z,8.55
2023-02-27T02:48:34.041Z,9.65
2023-02-27T02:51:09.101Z,7.32
2023-02-27T02:53:44.462Z,8.38
2023-02-27T02:56:20.607Z,8.02
2023-02-27T02:58:59.716Z,14.18
2023-02-27T03:01:34.515Z,9.25
2023-02-27T03:04:08.925Z,8.23
2023-02-27T03:06:41.473Z,9.27
2023-02-27T03:09:16.174Z,8.85
2023-02-27T03:11:49.534Z,9.27
2023-02-27T03:14:22.814Z,7.85
2023-02-27T03:16:55.506Z,8.15
2023-02-27T03:19:26.438Z,10.20
2023-02-27T03:21:59.689Z,8.00
2023-02-27T03:24:33.613Z,8.10
2023-02-27T03:27:05.135Z,6.50
2023-02-27T03:29:44.966Z,6.63
2023-02-27T03:32:18.745Z,6.38
2023-02-27T03:34:46.997Z,9.98
2023-02-27T03:37:27.620Z,6.68
2023-02-27T03:40:06.469Z,6.65
2023-02-27T03:42:41.632Z,8.35
2023-02-27T03:45:25.471Z,7.03
2023-02-27T03:47:53.761Z,6.75
2023-02-27T03:50:22.297Z,8.32
2023-02-27T03:52:51.086Z,5.90
2023-02-27T03:55:22.788Z,8.07
2023-02-27T03:57:52.834Z,7.55
2023-02-27T04:00:22.982Z,6.90
2023-02-27T04:02:53.617Z,7.85
2023-02-27T04:05:25.500Z,8.35
2023-02-27T04:08:16.390Z,12.35
2023-02-27T04:10:57.342Z,6.57
2023-02-27T04:13:46.913Z,7.25
2023-02-27T04:16:37.703Z,6.90
2023-02-27T04:19:18.617Z,7.95
2023-02-27T04:21:55.209Z,6.57
2023-02-27T04:24:37.256Z,7.63
2023-02-27T04:27:16.432Z,6.40
2023-02-27T04:29:56.623Z,6.95
2023-02-27T04:32:34.190Z,7.22
2023-02-27T04:35:07.063Z,9.18
2023-02-27T04:37:43.457Z,7.63
2023-02-27T04:40:14.474Z,6.90
2023-02-27T04:42:48.239Z,9.82
2023-02-27T04:45:21.874Z,8.55
2023-02-27T04:47:54.875Z,8.48
2023-02-27T04:50:28.077Z,9.30
2023-02-27T04:53:01.228Z,7.80
2023-02-27T04:55:34.030Z,8.52
2023-02-27T04:58:10.502Z,10.30
2023-02-27T05:00:42.792Z,9.18
2023-02-27T05:03:15.634Z,8.20
2023-02-27T05:05:46.529Z,10.63
2023-02-27T05:08:20.260Z,10.07
2023-02-27T05:10:53.831Z,9.07
2023-02-27T05:13:28.399Z,9.38
2023-02-27T05:16:04.286Z,7.93
2023-02-27T05:18:32.397Z,6.70
2023-02-27T05:21:10.361Z,8.98
2023-02-27T05:23:44.895Z,9.43
2023-02-27T05:26:18.976Z,10.63
2023-02-27T05:28:55.136Z,8.00
2023-02-27T05:31:29.589Z,8.85
2023-02-27T05:34:05.036Z,9.95
2023-02-27T05:36:36.062Z,9.65
2023-02-27T05:39:06.732Z,9.95
2023-02-27T05:41:38.312Z,7.78
2023-02-27T05:44:09.988Z,9.65
2023-02-27T05:46:44.788Z,11.15
2023-02-27T05:49:18.368Z,9.85
2023-02-27T05:51:50.504Z,8.10
2023-02-27T05:54:25.254Z,9.82
2023-02-27T05:56:57.139Z,8.50
2023-02-27T05:59:30.171Z,8.95
2023-02-27T06:01:59.357Z,10.85
2023-02-27T06:04:27.324Z,7.90
2023-02-27T06:06:55.361Z,7.55
2023-02-27T06:09:23.113Z,9.45
2023-02-27T06:11:50.900Z,9.40
2023-02-27T06:14:18.787Z,9.85
2023-02-27T06:16:46.587Z,10.25
2023-02-27T06:19:15.755Z,10.77
2023-02-27T06:21:43.531Z,8.68
2023-02-27T06:24:11.276Z,9.55
2023-02-27T06:26:39.056Z,9.20
2023-02-27T06:29:06.840Z,10.23
2023-02-27T06:31:34.586Z,9.00
2023-02-27T06:34:02.913Z,9.15
2023-02-27T06:36:32.177Z,9.45
2023-02-27T06:39:00.031Z,9.68
2023-02-27T06:41:28.545Z,11.25
2023-02-27T06:43:58.059Z,9.90
2023-02-27T06:46:26.331Z,8.73
2023-02-27T06:48:54.458Z,8.52
2023-02-27T06:51:22.273Z,12.07
2023-02-27T06:53:51.502Z,9.13
2023-02-27T06:56:19.470Z,10.32
2023-02-27T06:58:47.260Z,14.50
2023-02-27T07:01:15.190Z,9.32
2023-02-27T07:03:43.017Z,9.82
2023-02-27T07:06:12.009Z,8.23
2023-02-27T07:09:01.027Z,14.23
2023-02-27T07:11:29.643Z,7.90
2023-02-27T07:13:57.707Z,9.63
2023-02-27T07:16:25.755Z,7.40
2023-02-27T07:18:53.695Z,20.88
2023-02-27T07:21:21.478Z,30.27
2023-02-27T07:23:49.237Z,25.77
2023-02-27T07:26:17.059Z,29.17
2023-02-27T07:28:46.171Z,10.15
2023-02-27T07:31:14.248Z,10.30
2023-02-27T07:33:42.002Z,11.05
2023-02-27T07:36:09.974Z,11.60
2023-02-27T07:38:37.706Z,7.72
2023-02-27T07:41:05.838Z,10.65
2023-02-27T07:43:33.590Z,11.80
2023-02-27T07:46:04.117Z,11.25
2023-02-27T07:48:32.037Z,12.50
2023-02-27T07:51:00.210Z,9.63
2023-02-27T07:53:28.381Z,12.32
2023-02-27T07:55:56.210Z,11.15
2023-02-27T07:58:23.981Z,8.93
2023-02-27T08:00:52.047Z,8.82
2023-02-27T08:03:21.213Z,7.47
2023-02-27T08:05:49.278Z,7.10
2023-02-27T08:08:17.032Z,6.43
2023-02-27T08:10:44.952Z,9.32
2023-02-27T08:13:12.768Z,11.35
2023-02-27T08:15:41.289Z,5.93
2023-02-27T08:18:09.197Z,9.20
2023-02-27T08:20:38.432Z,10.43
2023-02-27T08:23:06.875Z,7.68
2023-02-27T08:25:34.680Z,7.22
2023-02-27T08:28:02.701Z,8.27
2023-02-27T08:30:30.696Z,7.43
2023-02-27T08:32:58.718Z,7.07
2023-02-27T08:35:26.561Z,5.63
2023-02-27T08:37:55.669Z,7.60
2023-02-27T08:40:23.494Z,5.63
2023-02-27T08:42:52.646Z,7.00
2023-02-27T08:45:20.472Z,7.10
2023-02-27T08:47:48.278Z,6.50
2023-02-27T08:50:16.041Z,6.95
2023-02-27T08:52:43.831Z,7.78
2023-02-27T08:55:13.188Z,6.03
2023-02-27T08:57:40.988Z,9.10
2023-02-27T09:00:14.578Z,8.35
2023-02-27T09:02:42.550Z,7.93
2023-02-27T09:05:11.435Z,8.63
2023-02-27T09:07:39.302Z,6.63
2023-02-27T09:10:08.209Z,4.80
2023-02-27T09:12:37.555Z,6.70
2023-02-27T09:15:06.338Z,6.60
2023-02-27T09:17:34.208Z,5.63
2023-02-27T09:20:02.051Z,4.60
2023-02-27T09:22:30.032Z,7.32
2023-02-27T09:24:57.900Z,6.45
2023-02-27T09:27:26.012Z,6.60
2023-02-27T09:29:56.385Z,6.60
2023-02-27T09:32:24.546Z,6.47
2023-02-27T09:34:52.528Z,7.93
2023-02-27T09:37:20.572Z,7.53
2023-02-27T09:39:48.518Z,6.80
2023-02-27T09:42:20.415Z,6.40
2023-02-27T09:44:51.582Z,5.47
2023-02-27T09:47:27.643Z,5.13
2023-02-27T09:50:08.127Z,4.55
2023-02-27T09:52:38.415Z,6.15
2023-02-27T09:55:07.494Z,5.55
2023-02-27T09:57:45.619Z,5.35
2023-02-27T10:00:30.402Z,5.28
2023-02-27T10:03:12.628Z,4.57
2023-02-27T10:05:45.811Z,5.60
2023-02-27T10:08:22.749Z,4.68
2023-02-27T10:13:37.918Z,4.65
2023-02-27T10:21:11.825Z,5.57
2023-02-27T10:23:44.735Z,4.78
2023-02-27T10:26:20.683Z,4.80
2023-02-27T10:28:48.862Z,4.88
2023-02-27T10:31:21.199Z,5.97
2023-02-27T10:33:51.897Z,4.63
2023-02-27T10:36:33.051Z,4.20
2023-02-27T10:39:07.070Z,5.22
2023-02-27T10:41:36.885Z,4.05
2023-02-27T10:44:05.528Z,4.60
2023-02-27T10:46:38.091Z,4.55
2023-02-27T10:49:18.321Z,5.50
2023-02-27T10:51:47.395Z,5.10
2023-02-27T10:54:19.924Z,4.20
2023-02-27T10:56:52.136Z,5.47
2023-02-27T10:59:23.600Z,4.45
2023-02-27T11:01:54.353Z,4.15
2023-02-27T11:04:30.972Z,5.15
2023-02-27T11:07:00.391Z,3.45
2023-02-27T11:09:30.402Z,5.30
2023-02-27T11:12:12.154Z,4.97
2023-02-27T11:14:50.184Z,3.85
2023-02-27T11:17:27.458Z,4.82
2023-02-27T11:19:57.378Z,4.03
2023-02-27T11:22:27.407Z,3.53
2023-02-27T11:25:18.237Z,4.18
2023-02-27T11:27:47.000Z,4.45
2023-02-27T11:30:24.865Z,3.85
2023-02-27T11:32:54.398Z,4.38
2023-02-27T11:35:29.446Z,4.32
2023-02-27T11:38:01.261Z,9.40
2023-02-27T11:40:31.979Z,3.55
2023-02-27T11:43:04.936Z,30.17
2023-02-27T11:46:14.672Z,3.65
2023-02-27T11:48:26.595Z,4.18
2023-02-27T11:51:17.793Z,3.80
2023-02-27T11:54:29.985Z,4.20
2023-02-27T11:57:01.372Z,2.95
2023-02-27T11:59:40.130Z,3.65
2023-02-27T12:02:19.077Z,2.45
2023-02-27T12:04:53.653Z,3.70
2023-02-27T12:07:27.390Z,3.22
2023-02-27T12:10:02.490Z,3.40
2023-02-27T12:12:36.674Z,3.72
2023-02-27T12:15:16.400Z,3.88
2023-02-27T12:17:48.606Z,3.00
2023-02-27T12:20:31.021Z,2.50
2023-02-27T12:23:03.370Z,2.88
2023-02-27T12:25:37.423Z,2.88
2023-02-27T12:28:16.997Z,3.78
2023-02-27T12:30:50.981Z,3.38
2023-02-27T12:33:26.633Z,5.25
2023-02-27T12:36:00.392Z,3.60
2023-02-27T12:38:30.092Z,3.88
2023-02-27T12:41:09.733Z,3.88
2023-02-27T12:43:43.360Z,3.75
2023-02-27T12:46:26.043Z,4.45
2023-02-27T12:49:10.481Z,3.22
2023-02-27T12:51:52.112Z,3.72
2023-02-27T12:54:46.345Z,3.30
2023-02-27T12:57:33.167Z,3.08
2023-02-27T13:00:11.672Z,3.63
2023-02-27T13:02:49.522Z,3.80
2023-02-27T13:05:32.271Z,4.28
2023-02-27T13:10:40.364Z,4.15
2023-02-27T13:13:17.662Z,3.80
2023-02-27T13:15:52.414Z,3.85
2023-02-27T13:18:32.392Z,4.03
2023-02-27T13:21:08.505Z,4.68
2023-02-27T13:23:47.712Z,4.28
2023-02-27T13:26:22.338Z,6.05
2023-02-27T13:28:51.343Z,3.78
2023-02-27T13:31:31.790Z,5.65
2023-02-27T13:34:09.269Z,5.53
2023-02-27T13:36:41.516Z,4.10
2023-02-27T13:39:43.739Z,3.92
2023-02-27T13:42:49.099Z,4.78
2023-02-27T13:45:50.248Z,3.90
2023-02-27T13:48:46.225Z,3.47
2023-02-27T13:51:44.751Z,6.10
2023-02-27T13:54:33.120Z,3.15
2023-02-27T13:57:16.516Z,4.70
2023-02-27T13:59:56.263Z,3.85
2023-02-27T14:02:34.591Z,5.03
2023-02-27T14:05:06.192Z,4.28
2023-02-27T14:07:48.146Z,4.32
2023-02-27T14:10:22.048Z,4.97
2023-02-27T14:12:49.929Z,4.10
2023-02-27T14:15:50.139Z,4.90
2023-02-27T14:18:58.332Z,4.53
2023-02-27T14:22:05.817Z,5.35
2023-02-27T14:24:41.404Z,3.55
2023-02-27T14:27:20.162Z,3.45
2023-02-27T14:29:51.555Z,3.80
2023-02-27T14:32:23.550Z,6.15
2023-02-27T14:34:55.330Z,4.57
2023-02-27T14:37:26.118Z,5.50
2023-02-27T14:39:56.931Z,7.03
2023-02-27T14:45:02.561Z,6.70
2023-02-27T14:47:32.893Z,6.15
2023-02-27T14:50:03.993Z,5.78
2023-02-27T14:52:33.880Z,5.05
2023-02-27T14:55:16.818Z,5.18
2023-02-27T14:57:56.018Z,6.28
2023-02-27T15:00:35.584Z,5.47
2023-02-27T15:03:13.119Z,4.95
2023-02-27T15:05:42.490Z,4.70
2023-02-27T15:08:17.643Z,5.10
2023-02-27T15:10:45.834Z,12.18
2023-02-27T15:13:25.135Z,13.57
2023-02-27T15:15:56.929Z,16.48
2023-02-27T15:18:26.363Z,5.18
2023-02-27T15:21:01.354Z,5.30
2023-02-27T15:23:29.855Z,5.55
2023-02-27T15:25:59.186Z,5.03
2023-02-27T15:28:31.544Z,5.75
2023-02-27T15:30:59.527Z,5.55
2023-02-27T15:33:31.062Z,7.10
2023-02-27T15:35:59.672Z,6.28
2023-02-27T15:38:34.911Z,5.93
2023-02-27T15:41:04.884Z,5.57
2023-02-27T15:43:32.958Z,5.38
2023-02-27T15:46:01.114Z,4.90
2023-02-27T15:48:29.867Z,5.18
2023-02-27T15:51:01.027Z,5.72
2023-02-27T15:53:33.967Z,5.63
2023-02-27T15:56:06.091Z,5.25
2023-02-27T15:58:36.557Z,4.97
2023-02-27T16:01:08.666Z,5.65
2023-02-27T16:03:39.148Z,5.15
2023-02-27T16:06:13.045Z,6.03
2023-02-27T16:08:47.468Z,5.65
2023-02-27T16:11:22.278Z,4.13
2023-02-27T16:13:50.378Z,5.35
2023-02-27T16:16:31.765Z,5.82
2023-02-27T16:19:02.647Z,4.97
2023-02-27T16:21:32.123Z,4.63
2023-02-27T16:24:22.460Z,5.40
2023-02-27T16:26:53.046Z,4.45
2023-02-27T16:29:23.661Z,3.78
2023-02-27T16:31:54.110Z,4.70
2023-02-27T16:34:42.900Z,5.90
2023-02-27T16:37:20.322Z,4.25
2023-02-27T16:39:51.137Z,4.50
2023-02-27T16:42:19.491Z,5.45
2023-02-27T16:44:47.362Z,4.47
2023-02-27T16:47:15.251Z,5.13
2023-02-27T16:49:44.424Z,3.97
2023-02-27T16:52:12.965Z,4.55
2023-02-27T16:54:40.734Z,5.45
2023-02-27T16:57:10.511Z,3.95
2023-02-27T16:59:40.492Z,4.30
2023-02-27T17:02:13.730Z,5.50
2023-02-27T17:04:44.094Z,4.07
2023-02-27T17:07:15.785Z,4.18
2023-02-27T17:09:44.777Z,4.50
2023-02-27T17:12:14.238Z,4.63
2023-02-27T17:14:41.985Z,4.55
2023-02-27T17:17:11.367Z,5.55
2023-02-27T17:19:39.439Z,4.43
2023-02-27T17:22:07.579Z,5.13
2023-02-27T17:24:35.334Z,4.90
2023-02-27T17:27:03.241Z,4.88
2023-02-27T17:29:32.393Z,5.53
2023-02-27T17:32:00.293Z,6.07
2023-02-27T17:34:28.183Z,5.75
2023-02-27T17:36:55.938Z,4.63
2023-02-27T17:39:23.727Z,5.40
2023-02-27T17:41:52.920Z,5.10
2023-02-27T17:44:20.853Z,6.07
2023-02-27T17:46:50.036Z,5.78
2023-02-27T17:49:17.832Z,5.50
2023-02-27T17:51:45.700Z,5.97
2023-02-27T17:54:13.457Z,6.40
2023-02-27T17:56:41.216Z,5.78
2023-02-27T17:59:09.035Z,5.85
2023-02-27T18:01:36.910Z,6.78
2023-02-27T18:04:07.922Z,7.25
2023-02-27T18:06:35.776Z,7.57
2023-02-27T18:09:03.606Z,8.98
2023-02-27T18:11:31.381Z,5.95
2023-02-27T18:13:59.207Z,6.30
2023-02-27T18:16:27.324Z,6.85
2023-02-27T18:18:55.459Z,7.20
2023-02-27T18:21:24.735Z,7.53
2023-02-27T18:23:53.084Z,8.05
2023-02-27T18:26:30.027Z,6.82
2023-02-27T18:29:00.379Z,6.47
2023-02-27T18:31:30.118Z,6.43
2023-02-27T18:33:58.154Z,7.40
2023-02-27T18:36:28.051Z,7.68
2023-02-27T18:38:56.087Z,7.60
2023-02-27T18:41:23.919Z,6.22
2023-02-27T18:43:52.120Z,7.80
2023-02-27T18:46:20.532Z,6.93
2023-02-27T18:48:48.537Z,8.98
2023-02-27T18:51:17.594Z,8.70
2023-02-27T18:53:49.114Z,7.30
2023-02-27T18:56:18.668Z,7.60
2023-02-27T18:58:46.781Z,7.60
2023-02-27T19:01:20.152Z,8.20
2023-02-27T19:03:48.053Z,7.43
2023-02-27T19:06:16.053Z,7.22
2023-02-27T19:08:43.925Z,8.00
2023-02-27T19:11:22.144Z,7.32
2023-02-27T19:13:50.054Z,7.40
2023-02-27T19:16:18.069Z,7.88
2023-02-27T19:18:45.930Z,9.13
2023-02-27T19:21:13.712Z,11.65
2023-02-27T19:23:41.501Z,9.57
2023-02-27T19:26:09.341Z,9.80
2023-02-27T19:28:38.522Z,8.20
2023-02-27T19:31:10.723Z,9.20
2023-02-27T19:33:39.291Z,6.70
2023-02-27T19:36:08.057Z,7.03
2023-02-27T19:38:36.230Z,7.03
2023-02-27T19:41:04.735Z,8.75
2023-02-27T19:43:32.729Z,9.60
2023-02-27T19:46:05.975Z,7.60
2023-02-27T19:48:34.041Z,8.35
2023-02-27T19:51:03.299Z,8.27
2023-02-27T19:53:31.742Z,6.47
2023-02-27T19:56:01.479Z,7.25
2023-02-27T19:58:29.530Z,7.88
2023-02-27T20:00:57.554Z,9.52
2023-02-27T20:03:27.333Z,8.75
2023-02-27T20:05:55.103Z,6.88
2023-02-27T20:08:23.163Z,6.07
2023-02-27T20:10:55.765Z,7.40
2023-02-27T20:13:23.914Z,6.95
2023-02-27T20:15:58.982Z,6.82
2023-02-27T20:18:29.810Z,6.88
2023-02-27T20:21:03.125Z,7.22
2023-02-27T20:23:31.853Z,8.10
2023-02-27T20:26:00.330Z,9.88
2023-02-27T20:28:29.047Z,6.13
2023-02-27T20:30:56.829Z,6.70
2023-02-27T20:33:24.607Z,8.60
2023-02-27T20:35:53.784Z,8.80
2023-02-27T20:38:22.673Z,5.90
2023-02-27T20:40:51.046Z,8.13
2023-02-27T20:43:18.929Z,7.53
2023-02-27T20:45:46.822Z,8.30
2023-02-27T20:48:14.628Z,6.90
2023-02-27T20:50:42.684Z,7.88
2023-02-27T20:53:14.734Z,7.95
2023-02-27T20:55:48.774Z,8.20
2023-02-27T20:58:17.155Z,8.52
2023-02-27T21:00:45.035Z,7.65
2023-02-27T21:03:12.884Z,7.45
2023-02-27T21:05:47.270Z,8.32
2023-02-27T21:08:16.674Z,7.85
2023-02-27T21:10:44.825Z,10.55
2023-02-27T21:13:12.649Z,10.55
2023-02-27T21:15:40.466Z,8.93
2023-02-27T21:18:09.111Z,7.60
2023-02-27T21:20:36.994Z,7.97
2023-02-27T21:23:04.798Z,10.20
2023-02-27T21:25:34.116Z,9.25
2023-02-27T21:28:02.279Z,8.43
2023-02-27T21:30:30.236Z,8.70
2023-02-27T21:32:58.557Z,11.10
2023-02-27T21:35:26.395Z,9.02
2023-02-27T21:37:54.855Z,8.90
2023-02-27T21:40:22.897Z,9.48
2023-02-27T21:42:52.943Z,8.90
2023-02-27T21:45:20.771Z,8.80
2023-02-27T21:47:48.635Z,7.55
2023-02-27T21:50:18.171Z,8.70
2023-02-27T21:52:46.045Z,10.57
2023-02-27T21:55:13.979Z,7.68
2023-02-27T21:57:41.788Z,9.30
2023-02-27T22:00:12.840Z,7.30
2023-02-27T22:02:40.999Z,7.68
2023-02-27T22:05:09.564Z,9.27
2023-02-27T22:07:38.336Z,10.35
2023-02-27T22:10:06.785Z,10.75
2023-02-27T22:12:34.554Z,11.85
2023-02-27T22:15:02.411Z,9.18
2023-02-27T22:17:31.590Z,11.25
2023-02-27T22:19:59.422Z,9.20
2023-02-27T22:22:27.311Z,9.98
2023-02-27T22:24:55.173Z,9.50
2023-02-27T22:27:22.949Z,10.30
2023-02-27T22:29:50.775Z,11.02
2023-02-27T22:32:18.555Z,9.45
2023-02-27T22:34:47.761Z,9.95
2023-02-27T22:37:16.183Z,9.57
2023-02-27T22:39:44.277Z,10.07
2023-02-27T22:42:12.071Z,9.77
2023-02-27T22:44:39.879Z,8.32
2023-02-27T22:47:07.628Z,8.60
2023-02-27T22:49:37.027Z,8.30
2023-02-27T22:52:06.497Z,9.50
2023-02-27T22:54:34.279Z,9.43
2023-02-27T22:57:02.117Z,9.52
2023-02-27T22:59:29.855Z,9.98
2023-02-27T23:01:57.720Z,8.88
2023-02-27T23:04:25.562Z,9.50
2023-02-27T23:06:55.957Z,9.43
2023-02-27T23:09:27.180Z,8.07
2023-02-27T23:14:23.537Z,8.40
2023-02-27T23:16:51.408Z,7.60
2023-02-27T23:19:21.278Z,7.95
2023-02-27T23:21:49.359Z,10.73
2023-02-27T23:24:19.126Z,9.68
2023-02-27T23:26:49.843Z,8.77
2023-02-27T23:29:18.465Z,8.27
2023-02-27T23:31:46.361Z,10.13
2023-02-27T23:34:14.305Z,9.02
2023-02-27T23:36:42.089Z,8.43
2023-02-27T23:39:10.641Z,9.50
2023-02-27T23:41:38.534Z,6.50
2023-02-27T23:44:25.130Z,9.10
2023-02-27T23:46:52.887Z,8.63
2023-02-27T23:49:20.882Z,8.13
2023-02-27T23:51:48.686Z,10.63
2023-02-27T23:54:16.502Z,7.95
2023-02-27T23:56:44.339Z,7.75
2023-02-27T23:59:13.469Z,9.65
